sensor_id;sensor_type;location;lat;lon;timestamp;pressure;altitude;pressure_sealevel;temperature;humidity
13719;BME280;6931;51.100;17.068;2022-07-19T00:00:03;100646.84;;;20.82;56.42
13719;BME280;6931;51.100;17.068;2022-07-19T00:02:32;100650.09;;;20.21;57.92
13719;BME280;6931;51.100;17.068;2022-07-19T00:04:59;100648.59;;;20.67;56.68
13719;BME280;6931;51.100;17.068;2022-07-19T00:07:26;100634.78;;;20.69;56.46
13719;BME280;6931;51.100;17.068;2022-07-19T00:09:53;100647.75;;;20.79;56.65
13719;BME280;6931;51.100;17.068;2022-07-19T00:12:19;100635.06;;;20.71;56.54
13719;BME280;6931;51.100;17.068;2022-07-19T00:14:46;100654.25;;;20.67;57.60
13719;BME280;6931;51.100;17.068;2022-07-19T00:17:14;100641.31;;;20.66;57.33
13719;BME280;6931;51.100;17.068;2022-07-19T00:19:40;100653.56;;;20.63;57.34
13719;BME280;6931;51.100;17.068;2022-07-19T00:22:13;100650.25;;;20.77;56.88
13719;BME280;6931;51.100;17.068;2022-07-19T00:24:39;100648.59;;;20.67;57.36
13719;BME280;6931;51.100;17.068;2022-07-19T00:27:06;100646.28;;;20.75;56.86
13719;BME280;6931;51.100;17.068;2022-07-19T00:29:33;100643.69;;;20.68;57.03
13719;BME280;6931;51.100;17.068;2022-07-19T00:32:00;100647.91;;;20.63;57.03
13719;BME280;6931;51.100;17.068;2022-07-19T00:34:27;100641.25;;;20.57;57.56
13719;BME280;6931;51.100;17.068;2022-07-19T00:36:54;100649.75;;;20.44;57.57
13719;BME280;6931;51.100;17.068;2022-07-19T00:39:20;100650.66;;;20.41;57.56
13719;BME280;6931;51.100;17.068;2022-07-19T00:41:47;100637.53;;;20.35;57.51
13719;BME280;6931;51.100;17.068;2022-07-19T00:44:14;100654.72;;;20.53;56.86
13719;BME280;6931;51.100;17.068;2022-07-19T00:46:41;100656.97;;;20.58;57.01
13719;BME280;6931;51.100;17.068;2022-07-19T00:49:08;100653.72;;;20.34;58.20
13719;BME280;6931;51.100;17.068;2022-07-19T00:51:38;100649.88;;;20.41;57.92
13719;BME280;6931;51.100;17.068;2022-07-19T00:54:09;100644.78;;;20.36;58.12
13719;BME280;6931;51.100;17.068;2022-07-19T00:56:38;100639.31;;;20.41;57.56
13719;BME280;6931;51.100;17.068;2022-07-19T00:59:05;100642.94;;;20.42;57.54
13719;BME280;6931;51.100;17.068;2022-07-19T01:01:32;100653.13;;;20.52;57.18
13719;BME280;6931;51.100;17.068;2022-07-19T01:03:59;100642.03;;;20.58;56.76
13719;BME280;6931;51.100;17.068;2022-07-19T01:06:26;100629.38;;;20.49;56.91
13719;BME280;6931;51.100;17.068;2022-07-19T01:08:53;100632.91;;;20.41;57.37
13719;BME280;6931;51.100;17.068;2022-07-19T01:11:20;100647.28;;;20.34;58.06
13719;BME280;6931;51.100;17.068;2022-07-19T01:13:47;100644.91;;;20.32;57.89
13719;BME280;6931;51.100;17.068;2022-07-19T01:16:15;100655.19;;;20.39;58.16
13719;BME280;6931;51.100;17.068;2022-07-19T01:18:42;100641.38;;;20.28;58.80
13719;BME280;6931;51.100;17.068;2022-07-19T01:21:23;100638.66;;;20.25;58.17
13719;BME280;6931;51.100;17.068;2022-07-19T01:23:50;100652.25;;;20.30;57.77
13719;BME280;6931;51.100;17.068;2022-07-19T01:26:17;100635.97;;;20.21;57.72
13719;BME280;6931;51.100;17.068;2022-07-19T01:28:45;100655.75;;;20.21;58.04
13719;BME280;6931;51.100;17.068;2022-07-19T01:31:12;100652.94;;;20.21;57.98
13719;BME280;6931;51.100;17.068;2022-07-19T01:33:40;100655.28;;;20.10;58.15
13719;BME280;6931;51.100;17.068;2022-07-19T01:36:07;100645.19;;;19.97;58.45
13719;BME280;6931;51.100;17.068;2022-07-19T01:38:35;100642.94;;;20.04;58.23
13719;BME280;6931;51.100;17.068;2022-07-19T01:41:01;100630.16;;;20.00;57.97
13719;BME280;6931;51.100;17.068;2022-07-19T01:43:28;100633.78;;;20.00;58.13
13719;BME280;6931;51.100;17.068;2022-07-19T01:45:55;100639.75;;;19.90;58.87
13719;BME280;6931;51.100;17.068;2022-07-19T01:48:21;100640.56;;;20.03;58.27
13719;BME280;6931;51.100;17.068;2022-07-19T01:50:48;100649.56;;;19.73;59.10
13719;BME280;6931;51.100;17.068;2022-07-19T01:53:15;100637.81;;;19.74;58.43
13719;BME280;6931;51.100;17.068;2022-07-19T01:55:41;100644.84;;;19.95;58.08
13719;BME280;6931;51.100;17.068;2022-07-19T01:58:08;100637.28;;;19.92;58.24
13719;BME280;6931;51.100;17.068;2022-07-19T02:00:35;100646.66;;;19.89;58.22
13719;BME280;6931;51.100;17.068;2022-07-19T02:03:02;100642.81;;;19.70;58.74
13719;BME280;6931;51.100;17.068;2022-07-19T02:05:28;100644.59;;;19.64;59.01
13719;BME280;6931;51.100;17.068;2022-07-19T02:07:55;100642.25;;;19.75;58.75
13719;BME280;6931;51.100;17.068;2022-07-19T02:10:22;100634.09;;;19.65;58.65
13719;BME280;6931;51.100;17.068;2022-07-19T02:12:49;100637.50;;;19.85;58.20
13719;BME280;6931;51.100;17.068;2022-07-19T02:15:15;100622.47;;;19.75;58.39
13719;BME280;6931;51.100;17.068;2022-07-19T02:17:42;100629.34;;;19.62;59.57
13719;BME280;6931;51.100;17.068;2022-07-19T02:20:09;100630.66;;;19.57;59.40
13719;BME280;6931;51.100;17.068;2022-07-19T02:22:36;100643.03;;;19.63;59.17
13719;BME280;6931;51.100;17.068;2022-07-19T02:25:03;100639.75;;;19.77;59.10
13719;BME280;6931;51.100;17.068;2022-07-19T02:27:30;100637.59;;;19.69;59.22
13719;BME280;6931;51.100;17.068;2022-07-19T02:29:57;100640.88;;;19.80;58.96
13719;BME280;6931;51.100;17.068;2022-07-19T02:32:24;100636.59;;;19.75;59.29
13719;BME280;6931;51.100;17.068;2022-07-19T02:34:51;100644.03;;;19.69;59.58
13719;BME280;6931;51.100;17.068;2022-07-19T02:37:17;100634.09;;;19.65;59.59
13719;BME280;6931;51.100;17.068;2022-07-19T02:39:44;100632.59;;;19.48;60.08
13719;BME280;6931;51.100;17.068;2022-07-19T02:42:11;100641.06;;;19.48;60.24
13719;BME280;6931;51.100;17.068;2022-07-19T02:44:37;100641.72;;;19.52;60.35
13719;BME280;6931;51.100;17.068;2022-07-19T02:47:04;100636.78;;;19.56;60.44
13719;BME280;6931;51.100;17.068;2022-07-19T02:49:31;100647.63;;;19.57;60.63
13719;BME280;6931;51.100;17.068;2022-07-19T02:51:58;100645.50;;;19.61;60.33
13719;BME280;6931;51.100;17.068;2022-07-19T02:54:24;100645.00;;;19.50;60.43
13719;BME280;6931;51.100;17.068;2022-07-19T02:56:51;100646.84;;;19.28;61.36
13719;BME280;6931;51.100;17.068;2022-07-19T02:59:18;100641.25;;;19.41;61.01
13719;BME280;6931;51.100;17.068;2022-07-19T03:01:44;100645.13;;;19.47;61.04
13719;BME280;6931;51.100;17.068;2022-07-19T03:04:11;100643.53;;;19.46;61.27
13719;BME280;6931;51.100;17.068;2022-07-19T03:06:38;100645.41;;;19.36;62.28
13719;BME280;6931;51.100;17.068;2022-07-19T03:09:05;100640.38;;;19.44;62.09
13719;BME280;6931;51.100;17.068;2022-07-19T03:11:32;100648.53;;;19.54;61.28
13719;BME280;6931;51.100;17.068;2022-07-19T03:13:59;100649.69;;;19.57;61.57
13719;BME280;6931;51.100;17.068;2022-07-19T03:16:26;100634.22;;;19.32;62.38
13719;BME280;6931;51.100;17.068;2022-07-19T03:18:52;100641.38;;;19.21;63.48
13719;BME280;6931;51.100;17.068;2022-07-19T03:21:19;100648.38;;;19.45;62.54
13719;BME280;6931;51.100;17.068;2022-07-19T03:23:46;100655.53;;;19.50;62.44
13719;BME280;6931;51.100;17.068;2022-07-19T03:26:13;100656.31;;;19.50;62.65
13719;BME280;6931;51.100;17.068;2022-07-19T03:28:40;100642.63;;;19.49;61.92
13719;BME280;6931;51.100;17.068;2022-07-19T03:31:07;100648.97;;;18.95;63.63
13719;BME280;6931;51.100;17.068;2022-07-19T03:33:34;100653.59;;;18.73;65.05
13719;BME280;6931;51.100;17.068;2022-07-19T03:36:00;100646.50;;;18.97;63.94
13719;BME280;6931;51.100;17.068;2022-07-19T03:38:27;100636.38;;;18.84;64.70
13719;BME280;6931;51.100;17.068;2022-07-19T03:40:54;100641.97;;;19.00;64.05
13719;BME280;6931;51.100;17.068;2022-07-19T03:43:20;100638.63;;;19.33;63.32
13719;BME280;6931;51.100;17.068;2022-07-19T03:45:49;100640.47;;;19.40;63.37
13719;BME280;6931;51.100;17.068;2022-07-19T03:48:16;100644.13;;;19.53;62.82
13719;BME280;6931;51.100;17.068;2022-07-19T03:50:44;100643.28;;;19.40;62.96
13719;BME280;6931;51.100;17.068;2022-07-19T03:53:10;100644.44;;;19.43;63.07
13719;BME280;6931;51.100;17.068;2022-07-19T03:55:37;100646.81;;;19.44;63.32
13719;BME280;6931;51.100;17.068;2022-07-19T03:58:04;100650.50;;;18.52;65.15
13719;BME280;6931;51.100;17.068;2022-07-19T04:00:31;100646.88;;;19.12;63.20
13719;BME280;6931;51.100;17.068;2022-07-19T04:02:58;100650.47;;;19.28;62.54
13719;BME280;6931;51.100;17.068;2022-07-19T04:05:25;100624.28;;;19.12;63.46
13719;BME280;6931;51.100;17.068;2022-07-19T04:07:53;100657.56;;;19.49;63.03
13719;BME280;6931;51.100;17.068;2022-07-19T04:10:19;100655.75;;;19.43;63.37
13719;BME280;6931;51.100;17.068;2022-07-19T04:12:46;100663.06;;;19.40;63.65
13719;BME280;6931;51.100;17.068;2022-07-19T04:15:13;100657.22;;;19.47;63.13
13719;BME280;6931;51.100;17.068;2022-07-19T04:17:40;100658.72;;;19.64;62.31
13719;BME280;6931;51.100;17.068;2022-07-19T04:20:07;100647.63;;;19.57;61.90
13719;BME280;6931;51.100;17.068;2022-07-19T04:22:34;100646.00;;;19.44;62.47
13719;BME280;6931;51.100;17.068;2022-07-19T04:25:00;100659.84;;;19.54;62.44
13719;BME280;6931;51.100;17.068;2022-07-19T04:27:29;100668.31;;;19.54;61.74
13719;BME280;6931;51.100;17.068;2022-07-19T04:29:59;100664.84;;;19.63;61.04
13719;BME280;6931;51.100;17.068;2022-07-19T04:32:26;100660.78;;;19.76;60.82
13719;BME280;6931;51.100;17.068;2022-07-19T04:34:55;100674.47;;;19.78;59.95
13719;BME280;6931;51.100;17.068;2022-07-19T04:37:23;100666.19;;;19.58;60.64
13719;BME280;6931;51.100;17.068;2022-07-19T04:39:50;100674.34;;;19.69;60.43
13719;BME280;6931;51.100;17.068;2022-07-19T04:42:17;100672.50;;;19.62;60.44
13719;BME280;6931;51.100;17.068;2022-07-19T04:44:43;100680.22;;;19.74;60.41
13719;BME280;6931;51.100;17.068;2022-07-19T04:47:10;100679.66;;;19.79;60.36
13719;BME280;6931;51.100;17.068;2022-07-19T04:49:37;100671.53;;;19.81;60.56
13719;BME280;6931;51.100;17.068;2022-07-19T04:52:04;100680.72;;;19.85;59.67
13719;BME280;6931;51.100;17.068;2022-07-19T04:54:32;100671.53;;;19.81;59.80
13719;BME280;6931;51.100;17.068;2022-07-19T04:56:59;100674.81;;;19.80;60.17
13719;BME280;6931;51.100;17.068;2022-07-19T04:59:26;100682.75;;;19.85;60.80
13719;BME280;6931;51.100;17.068;2022-07-19T05:01:52;100669.63;;;19.91;60.77
13719;BME280;6931;51.100;17.068;2022-07-19T05:04:19;100663.53;;;19.92;60.29
13719;BME280;6931;51.100;17.068;2022-07-19T05:06:46;100662.63;;;19.95;60.28
13719;BME280;6931;51.100;17.068;2022-07-19T05:09:13;100656.06;;;19.98;59.71
13719;BME280;6931;51.100;17.068;2022-07-19T05:11:44;100658.78;;;20.02;60.03
13719;BME280;6931;51.100;17.068;2022-07-19T05:14:11;100665.34;;;20.11;59.15
13719;BME280;6931;51.100;17.068;2022-07-19T05:16:37;100670.22;;;20.11;58.54
13719;BME280;6931;51.100;17.068;2022-07-19T05:19:04;100660.63;;;20.21;58.68
13719;BME280;6931;51.100;17.068;2022-07-19T05:21:31;100647.63;;;20.23;58.63
13719;BME280;6931;51.100;17.068;2022-07-19T05:23:58;100670.72;;;20.22;59.00
13719;BME280;6931;51.100;17.068;2022-07-19T05:26:24;100662.34;;;20.18;59.23
13719;BME280;6931;51.100;17.068;2022-07-19T05:28:51;100659.84;;;20.20;59.07
13719;BME280;6931;51.100;17.068;2022-07-19T05:31:18;100663.91;;;20.19;58.57
13719;BME280;6931;51.100;17.068;2022-07-19T05:33:45;100666.47;;;20.14;58.62
13719;BME280;6931;51.100;17.068;2022-07-19T05:36:11;100660.06;;;20.38;58.45
13719;BME280;6931;51.100;17.068;2022-07-19T05:38:38;100665.81;;;20.60;58.51
13719;BME280;6931;51.100;17.068;2022-07-19T05:41:06;100653.69;;;20.47;57.65
13719;BME280;6931;51.100;17.068;2022-07-19T05:43:38;100669.22;;;20.42;55.21
13719;BME280;6931;51.100;17.068;2022-07-19T05:46:05;100659.59;;;20.52;55.24
13719;BME280;6931;51.100;17.068;2022-07-19T05:48:32;100661.72;;;20.61;55.17
13719;BME280;6931;51.100;17.068;2022-07-19T05:50:59;100658.19;;;20.70;54.93
13719;BME280;6931;51.100;17.068;2022-07-19T05:53:27;100654.66;;;20.78;54.89
13719;BME280;6931;51.100;17.068;2022-07-19T05:55:54;100647.97;;;20.85;54.35
13719;BME280;6931;51.100;17.068;2022-07-19T05:58:21;100650.00;;;20.84;55.24
13719;BME280;6931;51.100;17.068;2022-07-19T06:00:48;100658.59;;;20.93;54.34
13719;BME280;6931;51.100;17.068;2022-07-19T06:03:34;100661.56;;;20.90;53.53
13719;BME280;6931;51.100;17.068;2022-07-19T06:06:01;100643.31;;;20.91;54.24
13719;BME280;6931;51.100;17.068;2022-07-19T06:08:28;100656.66;;;21.03;54.57
13719;BME280;6931;51.100;17.068;2022-07-19T06:10:54;100662.53;;;20.96;54.08
13719;BME280;6931;51.100;17.068;2022-07-19T06:13:21;100657.34;;;21.07;54.58
13719;BME280;6931;51.100;17.068;2022-07-19T06:15:48;100647.09;;;21.09;54.42
13719;BME280;6931;51.100;17.068;2022-07-19T06:18:17;100658.88;;;21.20;54.41
13719;BME280;6931;51.100;17.068;2022-07-19T06:20:46;100656.75;;;21.33;54.18
13719;BME280;6931;51.100;17.068;2022-07-19T06:23:13;100656.44;;;21.31;53.32
13719;BME280;6931;51.100;17.068;2022-07-19T06:25:45;100650.09;;;21.49;53.34
13719;BME280;6931;51.100;17.068;2022-07-19T06:28:12;100650.16;;;21.58;52.74
13719;BME280;6931;51.100;17.068;2022-07-19T06:30:39;100650.22;;;21.67;52.52
13719;BME280;6931;51.100;17.068;2022-07-19T06:33:06;100650.75;;;21.75;52.31
13719;BME280;6931;51.100;17.068;2022-07-19T06:35:33;100648.91;;;21.81;51.73
13719;BME280;6931;51.100;17.068;2022-07-19T06:37:59;100650.06;;;21.92;51.49
13719;BME280;6931;51.100;17.068;2022-07-19T06:40:26;100647.16;;;22.05;49.42
13719;BME280;6931;51.100;17.068;2022-07-19T06:42:53;100653.19;;;22.16;48.79
13719;BME280;6931;51.100;17.068;2022-07-19T06:45:20;100643.31;;;22.29;50.24
13719;BME280;6931;51.100;17.068;2022-07-19T06:47:46;100639.06;;;22.34;50.27
13719;BME280;6931;51.100;17.068;2022-07-19T06:50:13;100637.19;;;22.40;50.19
13719;BME280;6931;51.100;17.068;2022-07-19T06:53:00;100630.91;;;22.45;48.97
13719;BME280;6931;51.100;17.068;2022-07-19T06:55:27;100637.91;;;22.62;49.85
13719;BME280;6931;51.100;17.068;2022-07-19T06:57:54;100628.44;;;22.65;49.47
13719;BME280;6931;51.100;17.068;2022-07-19T07:00:21;100644.41;;;22.81;50.01
13719;BME280;6931;51.100;17.068;2022-07-19T07:02:47;100637.66;;;23.05;45.66
13719;BME280;6931;51.100;17.068;2022-07-19T07:05:14;100635.59;;;23.15;46.22
13719;BME280;6931;51.100;17.068;2022-07-19T07:07:41;100640.00;;;23.16;48.34
13719;BME280;6931;51.100;17.068;2022-07-19T07:10:09;100640.66;;;23.20;46.20
13719;BME280;6931;51.100;17.068;2022-07-19T07:12:37;100631.97;;;23.23;46.01
13719;BME280;6931;51.100;17.068;2022-07-19T07:15:05;100641.13;;;23.36;45.85
13719;BME280;6931;51.100;17.068;2022-07-19T07:17:32;100631.97;;;23.41;44.87
13719;BME280;6931;51.100;17.068;2022-07-19T07:19:59;100639.84;;;23.64;44.30
13719;BME280;6931;51.100;17.068;2022-07-19T07:22:26;100636.84;;;23.59;44.21
13719;BME280;6931;51.100;17.068;2022-07-19T07:24:53;100637.94;;;23.70;44.50
13719;BME280;6931;51.100;17.068;2022-07-19T07:27:20;100633.75;;;23.90;44.43
13719;BME280;6931;51.100;17.068;2022-07-19T07:29:50;100643.22;;;23.96;42.91
13719;BME280;6931;51.100;17.068;2022-07-19T07:32:17;100641.03;;;24.00;42.58
13719;BME280;6931;51.100;17.068;2022-07-19T07:34:45;100650.50;;;24.06;43.35
13719;BME280;6931;51.100;17.068;2022-07-19T07:37:11;100643.06;;;24.08;43.63
13719;BME280;6931;51.100;17.068;2022-07-19T07:39:38;100650.47;;;24.15;43.55
13719;BME280;6931;51.100;17.068;2022-07-19T07:42:05;100648.28;;;24.42;43.04
13719;BME280;6931;51.100;17.068;2022-07-19T07:44:37;100647.00;;;24.43;42.08
13719;BME280;6931;51.100;17.068;2022-07-19T07:47:04;100648.19;;;24.60;41.08
13719;BME280;6931;51.100;17.068;2022-07-19T07:49:36;100634.78;;;24.84;40.86
13719;BME280;6931;51.100;17.068;2022-07-19T07:52:04;100645.88;;;24.82;40.67
13719;BME280;6931;51.100;17.068;2022-07-19T07:54:31;100640.28;;;24.88;41.79
13719;BME280;6931;51.100;17.068;2022-07-19T07:56:59;100646.50;;;25.01;40.64
13719;BME280;6931;51.100;17.068;2022-07-19T07:59:25;100647.63;;;25.18;39.71
13719;BME280;6931;51.100;17.068;2022-07-19T08:01:52;100638.03;;;25.30;39.84
13719;BME280;6931;51.100;17.068;2022-07-19T08:04:25;100646.00;;;25.26;39.54
13719;BME280;6931;51.100;17.068;2022-07-19T08:06:53;100647.25;;;25.49;38.17
13719;BME280;6931;51.100;17.068;2022-07-19T08:09:20;100643.00;;;25.44;37.53
13719;BME280;6931;51.100;17.068;2022-07-19T08:11:47;100644.22;;;25.52;37.79
13719;BME280;6931;51.100;17.068;2022-07-19T08:14:13;100651.28;;;25.57;36.54
13719;BME280;6931;51.100;17.068;2022-07-19T08:16:40;100646.84;;;25.56;38.52
13719;BME280;6931;51.100;17.068;2022-07-19T08:19:07;100636.72;;;25.98;35.34
13719;BME280;6931;51.100;17.068;2022-07-19T08:21:34;100639.56;;;26.13;33.33
13719;BME280;6931;51.100;17.068;2022-07-19T08:24:01;100636.91;;;26.10;34.69
13719;BME280;6931;51.100;17.068;2022-07-19T08:26:28;100627.25;;;25.92;35.97
13719;BME280;6931;51.100;17.068;2022-07-19T08:28:57;100638.41;;;26.05;37.10
13719;BME280;6931;51.100;17.068;2022-07-19T08:31:24;100629.25;;;26.16;35.84
13719;BME280;6931;51.100;17.068;2022-07-19T08:33:51;100634.84;;;26.10;35.05
13719;BME280;6931;51.100;17.068;2022-07-19T08:36:17;100625.28;;;26.28;34.21
13719;BME280;6931;51.100;17.068;2022-07-19T08:38:44;100622.66;;;26.44;36.13
13719;BME280;6931;51.100;17.068;2022-07-19T08:41:14;100621.75;;;26.53;33.79
13719;BME280;6931;51.100;17.068;2022-07-19T08:43:41;100627.09;;;26.45;34.36
13719;BME280;6931;51.100;17.068;2022-07-19T08:46:08;100624.34;;;26.51;35.85
13719;BME280;6931;51.100;17.068;2022-07-19T08:48:36;100625.16;;;26.71;34.55
13719;BME280;6931;51.100;17.068;2022-07-19T08:51:12;100618.59;;;26.85;33.48
13719;BME280;6931;51.100;17.068;2022-07-19T08:53:39;100618.19;;;26.92;34.17
13719;BME280;6931;51.100;17.068;2022-07-19T08:56:07;100620.88;;;26.81;33.50
13719;BME280;6931;51.100;17.068;2022-07-19T08:58:54;100614.72;;;26.88;33.68
13719;BME280;6931;51.100;17.068;2022-07-19T09:01:22;100619.50;;;26.97;33.09
13719;BME280;6931;51.100;17.068;2022-07-19T09:09:16;100609.34;;;27.16;31.84
13719;BME280;6931;51.100;17.068;2022-07-19T09:11:46;100605.75;;;27.21;32.64
13719;BME280;6931;51.100;17.068;2022-07-19T09:14:21;100616.13;;;27.39;32.23
13719;BME280;6931;51.100;17.068;2022-07-19T09:16:53;100612.41;;;27.33;32.86
13719;BME280;6931;51.100;17.068;2022-07-19T09:19:21;100613.78;;;27.37;32.94
13719;BME280;6931;51.100;17.068;2022-07-19T09:24:37;100610.81;;;27.77;31.90
13719;BME280;6931;51.100;17.068;2022-07-19T09:27:10;100604.38;;;27.62;32.07
13719;BME280;6931;51.100;17.068;2022-07-19T09:29:41;100606.25;;;27.65;32.98
13719;BME280;6931;51.100;17.068;2022-07-19T09:32:19;100613.81;;;27.94;32.01
13719;BME280;6931;51.100;17.068;2022-07-19T09:34:57;100609.84;;;27.86;30.67
13719;BME280;6931;51.100;17.068;2022-07-19T09:37:26;100613.09;;;27.99;30.09
13719;BME280;6931;51.100;17.068;2022-07-19T09:39:59;100604.59;;;28.10;28.97
13719;BME280;6931;51.100;17.068;2022-07-19T09:45:07;100604.78;;;28.01;30.40
13719;BME280;6931;51.100;17.068;2022-07-19T09:47:36;100601.91;;;28.01;31.48
13719;BME280;6931;51.100;17.068;2022-07-19T09:50:08;100608.50;;;28.12;32.59
13719;BME280;6931;51.100;17.068;2022-07-19T09:52:36;100596.69;;;28.36;30.84
13719;BME280;6931;51.100;17.068;2022-07-19T09:55:12;100596.28;;;28.17;30.27
13719;BME280;6931;51.100;17.068;2022-07-19T09:57:44;100588.22;;;28.16;30.78
13719;BME280;6931;51.100;17.068;2022-07-19T10:00:13;100592.75;;;28.34;30.75
13719;BME280;6931;51.100;17.068;2022-07-19T10:02:44;100594.34;;;28.35;30.86
13719;BME280;6931;51.100;17.068;2022-07-19T10:05:12;100593.66;;;28.51;31.23
13719;BME280;6931;51.100;17.068;2022-07-19T10:07:39;100589.00;;;28.53;30.24
13719;BME280;6931;51.100;17.068;2022-07-19T10:10:11;100581.44;;;28.56;30.82
13719;BME280;6931;51.100;17.068;2022-07-19T10:12:40;100587.41;;;28.52;29.45
13719;BME280;6931;51.100;17.068;2022-07-19T10:15:08;100583.78;;;28.52;29.52
13719;BME280;6931;51.100;17.068;2022-07-19T10:20:49;100571.84;;;28.59;29.63
13719;BME280;6931;51.100;17.068;2022-07-19T10:23:16;100579.66;;;28.58;29.61
13719;BME280;6931;51.100;17.068;2022-07-19T10:25:47;100575.06;;;28.88;29.62
13719;BME280;6931;51.100;17.068;2022-07-19T10:28:36;100568.81;;;28.84;30.34
13719;BME280;6931;51.100;17.068;2022-07-19T10:31:28;100570.44;;;29.07;31.74
13719;BME280;6931;51.100;17.068;2022-07-19T10:34:06;100554.25;;;28.93;30.08
13719;BME280;6931;51.100;17.068;2022-07-19T10:36:38;100560.47;;;28.92;28.87
13719;BME280;6931;51.100;17.068;2022-07-19T10:44:29;100560.09;;;29.21;29.16
13719;BME280;6931;51.100;17.068;2022-07-19T10:46:56;100553.81;;;29.17;28.95
13719;BME280;6931;51.100;17.068;2022-07-19T10:58:07;100543.66;;;29.16;29.68
13719;BME280;6931;51.100;17.068;2022-07-19T11:00:48;100550.44;;;29.24;28.89
13719;BME280;6931;51.100;17.068;2022-07-19T11:06:19;100537.69;;;29.47;29.90
13719;BME280;6931;51.100;17.068;2022-07-19T11:08:46;100525.97;;;29.45;29.80
13719;BME280;6931;51.100;17.068;2022-07-19T11:11:17;100536.13;;;29.57;28.05
13719;BME280;6931;51.100;17.068;2022-07-19T11:13:49;100533.53;;;29.59;28.48
13719;BME280;6931;51.100;17.068;2022-07-19T11:16:17;100529.34;;;29.88;29.11
13719;BME280;6931;51.100;17.068;2022-07-19T11:18:44;100531.19;;;29.74;27.48
13719;BME280;6931;51.100;17.068;2022-07-19T11:21:13;100533.25;;;29.57;28.76
13719;BME280;6931;51.100;17.068;2022-07-19T11:23:41;100520.75;;;29.77;29.67
13719;BME280;6931;51.100;17.068;2022-07-19T11:26:10;100520.50;;;29.75;28.59
13719;BME280;6931;51.100;17.068;2022-07-19T11:28:38;100519.44;;;29.78;28.38
13719;BME280;6931;51.100;17.068;2022-07-19T11:31:17;100514.19;;;29.93;27.49
13719;BME280;6931;51.100;17.068;2022-07-19T11:33:46;100503.75;;;30.01;28.48
13719;BME280;6931;51.100;17.068;2022-07-19T11:36:15;100510.25;;;30.12;26.92
13719;BME280;6931;51.100;17.068;2022-07-19T11:38:51;100514.44;;;30.28;27.96
13719;BME280;6931;51.100;17.068;2022-07-19T11:41:30;100516.00;;;30.18;27.57
13719;BME280;6931;51.100;17.068;2022-07-19T11:44:00;100513.63;;;30.27;25.92
13719;BME280;6931;51.100;17.068;2022-07-19T11:46:32;100507.88;;;30.33;27.17
13719;BME280;6931;51.100;17.068;2022-07-19T11:49:04;100499.72;;;30.43;27.11
13719;BME280;6931;51.100;17.068;2022-07-19T11:51:31;100513.41;;;30.88;26.74
13719;BME280;6931;51.100;17.068;2022-07-19T11:53:59;100509.53;;;30.75;25.80
13719;BME280;6931;51.100;17.068;2022-07-19T11:56:32;100509.09;;;30.54;28.21
13719;BME280;6931;51.100;17.068;2022-07-19T11:59:02;100503.81;;;30.64;27.24
13719;BME280;6931;51.100;17.068;2022-07-19T12:01:36;100504.31;;;30.73;26.12
13719;BME280;6931;51.100;17.068;2022-07-19T12:04:09;100505.31;;;30.87;28.43
13719;BME280;6931;51.100;17.068;2022-07-19T12:09:06;100506.91;;;30.77;26.95
13719;BME280;6931;51.100;17.068;2022-07-19T12:16:47;100506.81;;;30.99;25.13
13719;BME280;6931;51.100;17.068;2022-07-19T12:19:14;100492.16;;;30.97;26.43
13719;BME280;6931;51.100;17.068;2022-07-19T12:21:44;100495.59;;;30.95;27.24
13719;BME280;6931;51.100;17.068;2022-07-19T12:24:18;100483.22;;;31.06;27.79
13719;BME280;6931;51.100;17.068;2022-07-19T12:31:51;100482.06;;;31.25;27.53
13719;BME280;6931;51.100;17.068;2022-07-19T12:34:19;100476.06;;;31.18;25.29
13719;BME280;6931;51.100;17.068;2022-07-19T12:36:45;100472.16;;;31.80;23.89
13719;BME280;6931;51.100;17.068;2022-07-19T12:39:30;100468.41;;;31.61;26.50
13719;BME280;6931;51.100;17.068;2022-07-19T12:42:04;100471.72;;;31.71;27.56
13719;BME280;6931;51.100;17.068;2022-07-19T12:44:35;100463.75;;;31.82;25.28
13719;BME280;6931;51.100;17.068;2022-07-19T12:47:03;100477.00;;;31.96;25.24
13719;BME280;6931;51.100;17.068;2022-07-19T12:49:49;100459.47;;;31.65;25.28
13719;BME280;6931;51.100;17.068;2022-07-19T12:52:29;100462.41;;;31.89;25.96
13719;BME280;6931;51.100;17.068;2022-07-19T12:54:56;100456.41;;;31.81;25.16
13719;BME280;6931;51.100;17.068;2022-07-19T12:57:22;100460.97;;;32.01;24.75
13719;BME280;6931;51.100;17.068;2022-07-19T12:59:49;100447.94;;;31.94;25.27
13719;BME280;6931;51.100;17.068;2022-07-19T13:02:17;100442.78;;;32.11;26.47
13719;BME280;6931;51.100;17.068;2022-07-19T13:04:45;100443.72;;;32.19;24.82
13719;BME280;6931;51.100;17.068;2022-07-19T13:07:12;100447.94;;;32.18;24.91
13719;BME280;6931;51.100;17.068;2022-07-19T13:09:40;100440.81;;;32.19;23.75
13719;BME280;6931;51.100;17.068;2022-07-19T13:12:08;100445.34;;;32.15;25.14
13719;BME280;6931;51.100;17.068;2022-07-19T13:14:35;100445.34;;;32.15;24.70
13719;BME280;6931;51.100;17.068;2022-07-19T13:17:02;100439.53;;;32.20;23.48
13719;BME280;6931;51.100;17.068;2022-07-19T13:19:29;100433.75;;;32.20;24.27
13719;BME280;6931;51.100;17.068;2022-07-19T13:21:56;100431.50;;;32.32;23.17
13719;BME280;6931;51.100;17.068;2022-07-19T13:24:24;100432.94;;;32.44;23.08
13719;BME280;6931;51.100;17.068;2022-07-19T13:27:11;100445.66;;;32.54;23.58
13719;BME280;6931;51.100;17.068;2022-07-19T13:29:37;100443.88;;;32.51;23.17
13719;BME280;6931;51.100;17.068;2022-07-19T13:32:05;100444.66;;;32.52;23.52
13719;BME280;6931;51.100;17.068;2022-07-19T13:34:34;100433.25;;;32.59;23.08
13719;BME280;6931;51.100;17.068;2022-07-19T13:37:01;100423.22;;;32.66;23.19
13719;BME280;6931;51.100;17.068;2022-07-19T13:39:28;100420.47;;;32.55;23.42